sensor_id;sensor_type;location;lat;lon;timestamp;pressure;altitude;pressure_sealevel;temperature;humidity
72548;BME280;60570;50.848;6.776;2023-04-30T00:00:00;101101.16;;;13.66;64.67
72548;BME280;60570;50.848;6.776;2023-04-30T00:01:04;101115.19;;;13.57;65.29
72548;BME280;60570;50.848;6.776;2023-04-30T00:02:05;101101.56;;;13.56;65.22
72548;BME280;60570;50.848;6.776;2023-04-30T00:03:06;101110.91;;;13.60;65.37
72548;BME280;60570;50.848;6.776;2023-04-30T00:04:08;101101.22;;;13.57;65.23
72548;BME280;60570;50.848;6.776;2023-04-30T00:05:08;101113.88;;;13.55;64.97
72548;BME280;60570;50.848;6.776;2023-04-30T00:06:10;101113.22;;;13.58;65.09
72548;BME280;60570;50.848;6.776;2023-04-30T00:07:11;101111.03;;;13.63;64.85
72548;BME280;60570;50.848;6.776;2023-04-30T00:08:13;101116.84;;;13.58;64.92
72548;BME280;60570;50.848;6.776;2023-04-30T00:09:14;101115.06;;;13.54;65.19
72548;BME280;60570;50.848;6.776;2023-04-30T00:10:16;101113.56;;;13.56;64.79
72548;BME280;60570;50.848;6.776;2023-04-30T00:11:17;101116.13;;;13.61;64.80
72548;BME280;60570;50.848;6.776;2023-04-30T00:12:21;101112.03;;;13.59;64.92
72548;BME280;60570;50.848;6.776;2023-04-30T00:13:24;101118.09;;;13.61;64.81
72548;BME280;60570;50.848;6.776;2023-04-30T00:14:25;101113.88;;;13.55;65.02
72548;BME280;60570;50.848;6.776;2023-04-30T00:15:26;101108.28;;;13.55;64.77
72548;BME280;60570;50.848;6.776;2023-04-30T00:16:28;101113.22;;;13.58;64.57
72548;BME280;60570;50.848;6.776;2023-04-30T00:17:28;101105.19;;;13.56;64.69
72548;BME280;60570;50.848;6.776;2023-04-30T00:18:30;101117.38;;;13.52;64.86
72548;BME280;60570;50.848;6.776;2023-04-30T00:19:31;101110.28;;;13.54;64.67
72548;BME280;60570;50.848;6.776;2023-04-30T00:20:32;101112.75;;;13.56;64.55
72548;BME280;60570;50.848;6.776;2023-04-30T00:21:34;101113.22;;;13.58;64.74
72548;BME280;60570;50.848;6.776;2023-04-30T00:22:36;101107.97;;;13.56;64.65
72548;BME280;60570;50.848;6.776;2023-04-30T00:23:36;101116.53;;;13.51;64.80
72548;BME280;60570;50.848;6.776;2023-04-30T00:24:38;101113.75;;;13.51;64.66
72548;BME280;60570;50.848;6.776;2023-04-30T00:25:39;101116.66;;;13.55;64.88
72548;BME280;60570;50.848;6.776;2023-04-30T00:26:41;101118.97;;;13.52;64.64
72548;BME280;60570;50.848;6.776;2023-04-30T00:27:43;101121.78;;;13.52;64.58
72548;BME280;60570;50.848;6.776;2023-04-30T00:28:46;101125.25;;;13.49;64.74
72548;BME280;60570;50.848;6.776;2023-04-30T00:29:47;101127.56;;;13.47;64.94
72548;BME280;60570;50.848;6.776;2023-04-30T00:30:49;101124.09;;;13.50;64.83
72548;BME280;60570;50.848;6.776;2023-04-30T00:31:50;101125.75;;;13.52;64.68
72548;BME280;60570;50.848;6.776;2023-04-30T00:32:51;101116.19;;;13.52;64.53
72548;BME280;60570;50.848;6.776;2023-04-30T00:33:52;101123.59;;;13.48;64.86
72548;BME280;60570;50.848;6.776;2023-04-30T00:34:53;101122.00;;;13.47;64.85
72548;BME280;60570;50.848;6.776;2023-04-30T00:35:54;101116.88;;;13.49;64.41
72548;BME280;60570;50.848;6.776;2023-04-30T00:36:56;101120.16;;;13.52;64.53
72548;BME280;60570;50.848;6.776;2023-04-30T00:37:57;101120.81;;;13.48;64.93
72548;BME280;60570;50.848;6.776;2023-04-30T00:38:58;101121.16;;;13.47;64.77
72548;BME280;60570;50.848;6.776;2023-04-30T00:39:59;101123.81;;;13.43;64.92
72548;BME280;60570;50.848;6.776;2023-04-30T00:41:01;101122.66;;;13.44;64.85
72548;BME280;60570;50.848;6.776;2023-04-30T00:42:02;101119.53;;;13.46;64.79
72548;BME280;60570;50.848;6.776;2023-04-30T00:43:04;101123.97;;;13.47;64.66
72548;BME280;60570;50.848;6.776;2023-04-30T00:44:06;101124.16;;;13.42;64.81
72548;BME280;60570;50.848;6.776;2023-04-30T00:45:09;101126.13;;;13.41;64.61
72548;BME280;60570;50.848;6.776;2023-04-30T00:46:09;101117.75;;;13.41;64.72
72548;BME280;60570;50.848;6.776;2023-04-30T00:47:11;101122.66;;;13.44;64.60
72548;BME280;60570;50.848;6.776;2023-04-30T00:48:12;101120.91;;;13.40;65.09
72548;BME280;60570;50.848;6.776;2023-04-30T00:49:14;101120.06;;;13.39;65.22
72548;BME280;60570;50.848;6.776;2023-04-30T00:50:15;101127.00;;;13.33;65.07
72548;BME280;60570;50.848;6.776;2023-04-30T00:51:16;101124.34;;;13.37;65.04
72548;BME280;60570;50.848;6.776;2023-04-30T00:52:17;101121.78;;;13.32;65.06
72548;BME280;60570;50.848;6.776;2023-04-30T00:53:20;101119.34;;;13.30;64.85
72548;BME280;60570;50.848;6.776;2023-04-30T00:54:22;101118.97;;;13.32;65.00
72548;BME280;60570;50.848;6.776;2023-04-30T00:55:24;101118.63;;;13.33;64.62
72548;BME280;60570;50.848;6.776;2023-04-30T00:56:26;101121.63;;;13.28;64.85
72548;BME280;60570;50.848;6.776;2023-04-30T00:57:28;101118.50;;;13.30;64.95
72548;BME280;60570;50.848;6.776;2023-04-30T00:58:29;101119.34;;;13.30;64.92
72548;BME280;60570;50.848;6.776;2023-04-30T00:59:33;101118.97;;;13.32;64.57
72548;BME280;60570;50.848;6.776;2023-04-30T01:00:34;101113.88;;;13.34;64.84
72548;BME280;60570;50.848;6.776;2023-04-30T01:01:36;101116.53;;;13.30;64.73
72548;BME280;60570;50.848;6.776;2023-04-30T01:02:38;101119.34;;;13.30;64.58
72548;BME280;60570;50.848;6.776;2023-04-30T01:03:41;101116.59;;;13.22;64.81
72548;BME280;60570;50.848;6.776;2023-04-30T01:04:43;101116.59;;;13.22;64.55
72548;BME280;60570;50.848;6.776;2023-04-30T01:05:44;101112.84;;;13.18;64.95
72548;BME280;60570;50.848;6.776;2023-04-30T01:06:45;101124.81;;;13.18;64.70
72548;BME280;60570;50.848;6.776;2023-04-30T01:07:53;101122.16;;;13.22;64.81
72548;BME280;60570;50.848;6.776;2023-04-30T01:08:54;101121.22;;;13.18;64.53
72548;BME280;60570;50.848;6.776;2023-04-30T01:09:57;101114.81;;;13.17;65.08
72548;BME280;60570;50.848;6.776;2023-04-30T01:11:06;101115.28;;;13.19;64.87
72548;BME280;60570;50.848;6.776;2023-04-30T01:12:17;101110.38;;;13.16;64.82
72548;BME280;60570;50.848;6.776;2023-04-30T01:13:26;101120.25;;;13.14;64.66
72548;BME280;60570;50.848;6.776;2023-04-30T01:14:36;101115.84;;;13.13;64.85
72548;BME280;60570;50.848;6.776;2023-04-30T01:15:43;101118.63;;;13.13;64.79
72548;BME280;60570;50.848;6.776;2023-04-30T01:16:50;101121.91;;;13.15;64.78
72548;BME280;60570;50.848;6.776;2023-04-30T01:17:55;101113.66;;;13.18;64.41
72548;BME280;60570;50.848;6.776;2023-04-30T01:19:01;101113.66;;;13.18;64.55
72548;BME280;60570;50.848;6.776;2023-04-30T01:20:06;101120.06;;;13.19;64.43
72548;BME280;60570;50.848;6.776;2023-04-30T01:21:12;101116.09;;;13.20;64.29
72548;BME280;60570;50.848;6.776;2023-04-30T01:22:29;101116.94;;;13.20;64.40
72548;BME280;60570;50.848;6.776;2023-04-30T01:23:42;101118.91;;;13.20;64.39
72548;BME280;60570;50.848;6.776;2023-04-30T01:26:39;101112.50;;;13.19;64.42
72548;BME280;60570;50.848;6.776;2023-04-30T01:28:04;101109.03;;;13.22;64.15
72548;BME280;60570;50.848;6.776;2023-04-30T01:29:07;101118.91;;;13.20;64.13
72548;BME280;60570;50.848;6.776;2023-04-30T01:30:08;101114.97;;;13.21;64.30
72548;BME280;60570;50.848;6.776;2023-04-30T01:31:12;101117.75;;;13.21;64.10
72548;BME280;60570;50.848;6.776;2023-04-30T01:32:13;101116.78;;;13.17;64.42
72548;BME280;60570;50.848;6.776;2023-04-30T01:33:15;101114.13;;;13.20;64.22
72548;BME280;60570;50.848;6.776;2023-04-30T01:34:15;101111.22;;;13.17;64.21
72548;BME280;60570;50.848;6.776;2023-04-30T01:35:17;101111.41;;;13.12;64.40
72548;BME280;60570;50.848;6.776;2023-04-30T01:36:37;101118.81;;;13.08;64.41
72548;BME280;60570;50.848;6.776;2023-04-30T01:37:52;101115.84;;;13.13;64.08
72548;BME280;60570;50.848;6.776;2023-04-30T01:39:06;101125.19;;;13.08;64.42
72548;BME280;60570;50.848;6.776;2023-04-30T01:40:21;101111.59;;;13.07;64.25
72548;BME280;60570;50.848;6.776;2023-04-30T01:41:29;101109.91;;;13.14;64.34
72548;BME280;60570;50.848;6.776;2023-04-30T01:42:38;101118.66;;;13.04;64.51
72548;BME280;60570;50.848;6.776;2023-04-30T01:43:48;101115.34;;;13.02;64.36
72548;BME280;60570;50.848;6.776;2023-04-30T01:45:00;101106.16;;;13.02;64.38
72548;BME280;60570;50.848;6.776;2023-04-30T01:46:11;101113.59;;;12.98;64.37
72548;BME280;60570;50.848;6.776;2023-04-30T01:47:25;101111.59;;;12.98;64.27
72548;BME280;60570;50.848;6.776;2023-04-30T01:48:36;101117.84;;;13.04;64.08
72548;BME280;60570;50.848;6.776;2023-04-30T01:49:50;101114.53;;;13.02;64.18
72548;BME280;60570;50.848;6.776;2023-04-30T01:50:58;101110.47;;;12.99;64.38
72548;BME280;60570;50.848;6.776;2023-04-30T01:52:08;101116.34;;;13.06;64.11
72548;BME280;60570;50.848;6.776;2023-04-30T01:53:14;101112.09;;;13.00;64.29
72548;BME280;60570;50.848;6.776;2023-04-30T01:54:23;101117.66;;;13.00;64.18
72548;BME280;60570;50.848;6.776;2023-04-30T01:55:29;101113.75;;;13.01;64.15
72548;BME280;60570;50.848;6.776;2023-04-30T01:56:39;101118.00;;;12.99;64.04
72548;BME280;60570;50.848;6.776;2023-04-30T01:57:42;101118.34;;;12.97;64.09
72548;BME280;60570;50.848;6.776;2023-04-30T01:58:52;101112.25;;;13.04;63.93
72548;BME280;60570;50.848;6.776;2023-04-30T01:59:53;101121.94;;;13.06;63.82
72548;BME280;60570;50.848;6.776;2023-04-30T02:00:57;101112.09;;;13.00;64.13
72548;BME280;60570;50.848;6.776;2023-04-30T02:01:58;101119.50;;;12.96;64.19
72548;BME280;60570;50.848;6.776;2023-04-30T02:03:00;101117.31;;;13.02;64.02
72548;BME280;60570;50.848;6.776;2023-04-30T02:04:01;101111.94;;;12.97;64.19
72548;BME280;60570;50.848;6.776;2023-04-30T02:05:04;101118.84;;;12.99;63.85
72548;BME280;60570;50.848;6.776;2023-04-30T02:06:06;101118.34;;;12.97;63.98
72548;BME280;60570;50.848;6.776;2023-04-30T02:07:08;101124.25;;;13.04;63.99
72548;BME280;60570;50.848;6.776;2023-04-30T02:08:09;101123.25;;;13.00;63.85
72548;BME280;60570;50.848;6.776;2023-04-30T02:09:11;101120.13;;;13.02;63.73
72548;BME280;60570;50.848;6.776;2023-04-30T02:10:11;101115.53;;;13.06;63.57
72548;BME280;60570;50.848;6.776;2023-04-30T02:11:13;101120.94;;;13.02;63.64
72548;BME280;60570;50.848;6.776;2023-04-30T02:12:14;101113.91;;;13.05;63.55
72548;BME280;60570;50.848;6.776;2023-04-30T02:13:15;101116.50;;;13.10;63.72
72548;BME280;60570;50.848;6.776;2023-04-30T02:14:18;101120.47;;;13.00;63.76
72548;BME280;60570;50.848;6.776;2023-04-30T02:15:20;101113.91;;;12.96;63.90
72548;BME280;60570;50.848;6.776;2023-04-30T02:16:21;101110.34;;;12.96;63.79
72548;BME280;60570;50.848;6.776;2023-04-30T02:17:23;101123.72;;;13.02;63.51
72548;BME280;60570;50.848;6.776;2023-04-30T02:18:24;101120.31;;;13.05;63.71
72548;BME280;60570;50.848;6.776;2023-04-30T02:19:25;101124.91;;;13.01;63.71
72548;BME280;60570;50.848;6.776;2023-04-30T02:20:26;101108.81;;;12.98;63.84
72548;BME280;60570;50.848;6.776;2023-04-30T02:21:28;101120.81;;;12.99;63.80
72548;BME280;60570;50.848;6.776;2023-04-30T02:22:28;101123.72;;;13.02;63.60
72548;BME280;60570;50.848;6.776;2023-04-30T02:23:30;101127.03;;;13.04;63.82
72548;BME280;60570;50.848;6.776;2023-04-30T02:24:31;101121.09;;;13.06;63.69
72548;BME280;60570;50.848;6.776;2023-04-30T02:25:32;101124.25;;;13.04;63.61
72548;BME280;60570;50.848;6.776;2023-04-30T02:26:37;101111.75;;;13.02;63.72
72548;BME280;60570;50.848;6.776;2023-04-30T02:27:39;101126.53;;;13.02;63.65
72548;BME280;60570;50.848;6.776;2023-04-30T02:28:39;101123.94;;;12.97;63.75
72548;BME280;60570;50.848;6.776;2023-04-30T02:29:42;101119.31;;;13.01;63.47
72548;BME280;60570;50.848;6.776;2023-04-30T02:30:43;101124.41;;;12.99;63.86
72548;BME280;60570;50.848;6.776;2023-04-30T02:31:45;101124.75;;;12.98;63.72
72548;BME280;60570;50.848;6.776;2023-04-30T02:32:46;101115.56;;;12.97;63.77
72548;BME280;60570;50.848;6.776;2023-04-30T02:33:48;101126.72;;;12.97;63.71
72548;BME280;60570;50.848;6.776;2023-04-30T02:34:49;101121.28;;;13.01;63.79
72548;BME280;60570;50.848;6.776;2023-04-30T02:35:50;101125.06;;;12.96;63.79
72548;BME280;60570;50.848;6.776;2023-04-30T02:36:51;101128.53;;;12.93;64.13
72548;BME280;60570;50.848;6.776;2023-04-30T02:37:52;101124.41;;;12.99;63.70
72548;BME280;60570;50.848;6.776;2023-04-30T02:38:53;101122.28;;;12.96;63.74
72548;BME280;60570;50.848;6.776;2023-04-30T02:39:55;101126.59;;;12.94;63.80
72548;BME280;60570;50.848;6.776;2023-04-30T02:40:56;101123.44;;;12.95;63.92
72548;BME280;60570;50.848;6.776;2023-04-30T02:41:58;101126.72;;;12.97;63.77
72548;BME280;60570;50.848;6.776;2023-04-30T02:42:58;101133.28;;;12.93;64.01
72548;BME280;60570;50.848;6.776;2023-04-30T02:44:00;101134.75;;;12.99;63.78
72548;BME280;60570;50.848;6.776;2023-04-30T02:45:03;101128.69;;;12.97;63.62
72548;BME280;60570;50.848;6.776;2023-04-30T02:46:05;101124.44;;;12.91;63.89
72548;BME280;60570;50.848;6.776;2023-04-30T02:47:06;101139.69;;;12.93;63.79
72548;BME280;60570;50.848;6.776;2023-04-30T02:48:07;101128.88;;;12.92;63.71
72548;BME280;60570;50.848;6.776;2023-04-30T02:49:08;101132.16;;;12.94;63.89
72548;BME280;60570;50.848;6.776;2023-04-30T02:50:10;101133.63;;;12.91;63.76
72548;BME280;60570;50.848;6.776;2023-04-30T02:51:10;101136.09;;;12.93;64.11
72548;BME280;60570;50.848;6.776;2023-04-30T02:52:12;101133.28;;;12.93;63.52
72548;BME280;60570;50.848;6.776;2023-04-30T02:53:13;101132.81;;;12.91;63.75
72548;BME280;60570;50.848;6.776;2023-04-30T02:54:14;101131.47;;;12.97;63.71
72548;BME280;60570;50.848;6.776;2023-04-30T02:55:15;101131.69;;;12.92;63.99
72548;BME280;60570;50.848;6.776;2023-04-30T02:56:17;101131.50;;;12.88;63.85
72548;BME280;60570;50.848;6.776;2023-04-30T02:57:18;101136.44;;;12.91;63.63
72548;BME280;60570;50.848;6.776;2023-04-30T02:58:20;101129.06;;;12.87;63.85
72548;BME280;60570;50.848;6.776;2023-04-30T02:59:21;101137.91;;;12.89;64.06
72548;BME280;60570;50.848;6.776;2023-04-30T03:00:24;101132.00;;;12.90;63.60
72548;BME280;60570;50.848;6.776;2023-04-30T03:01:25;101144.66;;;12.88;63.83
72548;BME280;60570;50.848;6.776;2023-04-30T03:02:27;101135.94;;;12.89;63.79
72548;BME280;60570;50.848;6.776;2023-04-30T03:03:28;101135.47;;;12.87;64.09
72548;BME280;60570;50.848;6.776;2023-04-30T03:04:29;101145.66;;;12.83;64.02
72548;BME280;60570;50.848;6.776;2023-04-30T03:05:30;101144.03;;;12.82;64.14
72548;BME280;60570;50.848;6.776;2023-04-30T03:06:32;101144.81;;;12.83;64.09
72548;BME280;60570;50.848;6.776;2023-04-30T03:07:33;101146.00;;;12.82;63.94
72548;BME280;60570;50.848;6.776;2023-04-30T03:08:35;101145.16;;;12.81;63.91
72548;BME280;60570;50.848;6.776;2023-04-30T03:09:36;101142.03;;;12.83;63.79
72548;BME280;60570;50.848;6.776;2023-04-30T03:10:37;101142.88;;;12.83;63.98
72548;BME280;60570;50.848;6.776;2023-04-30T03:11:38;101137.63;;;12.82;63.92
72548;BME280;60570;50.848;6.776;2023-04-30T03:12:40;101139.94;;;12.80;64.15
72548;BME280;60570;50.848;6.776;2023-04-30T03:13:42;101137.13;;;12.80;63.84
72548;BME280;60570;50.848;6.776;2023-04-30T03:14:44;101129.13;;;12.78;63.68
72548;BME280;60570;50.848;6.776;2023-04-30T03:15:46;101134.34;;;12.80;64.16
72548;BME280;60570;50.848;6.776;2023-04-30T03:16:47;101135.34;;;12.75;63.87
72548;BME280;60570;50.848;6.776;2023-04-30T03:17:48;101135.00;;;12.77;63.99
72548;BME280;60570;50.848;6.776;2023-04-30T03:18:50;101134.22;;;12.76;63.97
72548;BME280;60570;50.848;6.776;2023-04-30T03:19:50;101133.72;;;12.74;63.80
72548;BME280;60570;50.848;6.776;2023-04-30T03:20:52;101124.69;;;12.77;64.06
72548;BME280;60570;50.848;6.776;2023-04-30T03:21:53;101128.63;;;12.76;64.01
72548;BME280;60570;50.848;6.776;2023-04-30T03:22:55;101131.28;;;12.73;63.96
72548;BME280;60570;50.848;6.776;2023-04-30T03:23:56;101126.50;;;12.73;63.89
72548;BME280;60570;50.848;6.776;2023-04-30T03:24:58;101129.28;;;12.73;64.07
72548;BME280;60570;50.848;6.776;2023-04-30T03:25:59;101130.78;;;12.71;64.16
72548;BME280;60570;50.848;6.776;2023-04-30T03:27:01;101123.22;;;12.71;64.20
72548;BME280;60570;50.848;6.776;2023-04-30T03:28:03;101128.00;;;12.71;63.93
72548;BME280;60570;50.848;6.776;2023-04-30T03:29:04;101132.75;;;12.70;63.58
72548;BME280;60570;50.848;6.776;2023-04-30T03:30:06;101131.28;;;12.73;63.70
72548;BME280;60570;50.848;6.776;2023-04-30T03:31:09;101133.59;;;12.71;63.97
72548;BME280;60570;50.848;6.776;2023-04-30T03:32:10;101132.75;;;12.70;63.98
72548;BME280;60570;50.848;6.776;2023-04-30T03:33:12;101137.16;;;12.71;63.83
72548;BME280;60570;50.848;6.776;2023-04-30T03:34:12;101131.44;;;12.68;64.09
72548;BME280;60570;50.848;6.776;2023-04-30T03:35:14;101135.53;;;12.70;63.93
72548;BME280;60570;50.848;6.776;2023-04-30T03:36:16;101132.28;;;12.68;63.67
72548;BME280;60570;50.848;6.776;2023-04-30T03:37:18;101140.16;;;12.66;63.98
72548;BME280;60570;50.848;6.776;2023-04-30T03:38:18;101139.47;;;12.69;63.87
72548;BME280;60570;50.848;6.776;2023-04-30T03:39:20;101141.47;;;12.69;63.70
72548;BME280;60570;50.848;6.776;2023-04-30T03:40:21;101137.84;;;12.68;63.77
72548;BME280;60570;50.848;6.776;2023-04-30T03:41:23;101134.72;;;12.70;63.69
72548;BME280;60570;50.848;6.776;2023-04-30T03:42:24;101145.38;;;12.68;63.69
72548;BME280;60570;50.848;6.776;2023-04-30T03:43:25;101140.97;;;12.67;63.82
72548;BME280;60570;50.848;6.776;2023-04-30T03:44:29;101132.28;;;12.68;63.56
72548;BME280;60570;50.848;6.776;2023-04-30T03:45:31;101133.41;;;12.67;63.87
72548;BME280;60570;50.848;6.776;2023-04-30T03:46:33;101141.63;;;12.63;63.91
72548;BME280;60570;50.848;6.776;2023-04-30T03:47:35;101132.13;;;12.65;63.88
72548;BME280;60570;50.848;6.776;2023-04-30T03:48:36;101133.13;;;12.60;64.07
72548;BME280;60570;50.848;6.776;2023-04-30T03:49:37;101138.00;;;12.63;63.55
72548;BME280;60570;50.848;6.776;2023-04-30T03:50:38;101133.28;;;12.63;63.88
72548;BME280;60570;50.848;6.776;2023-04-30T03:51:40;101134.09;;;12.64;63.54
72548;BME280;60570;50.848;6.776;2023-04-30T03:52:41;101139.31;;;12.66;63.46
72548;BME280;60570;50.848;6.776;2023-04-30T03:53:42;101132.94;;;12.65;63.86
72548;BME280;60570;50.848;6.776;2023-04-30T03:54:43;101134.44;;;12.63;63.76
72548;BME280;60570;50.848;6.776;2023-04-30T03:55:45;101130.81;;;12.62;63.73
72548;BME280;60570;50.848;6.776;2023-04-30T03:56:46;101132.28;;;12.59;63.69
72548;BME280;60570;50.848;6.776;2023-04-30T03:57:48;101131.31;;;12.64;63.39
72548;BME280;60570;50.848;6.776;2023-04-30T03:58:48;101129.50;;;12.59;63.53
72548;BME280;60570;50.848;6.776;2023-04-30T03:59:50;101127.41;;;12.56;63.93
72548;BME280;60570;50.848;6.776;2023-04-30T04:00:51;101124.63;;;12.56;64.08
72548;BME280;60570;50.848;6.776;2023-04-30T04:01:54;101131.47;;;12.59;63.82
72548;BME280;60570;50.848;6.776;2023-04-30T04:02:58;101129.03;;;12.57;63.85
72548;BME280;60570;50.848;6.776;2023-04-30T04:04:00;101124.97;;;12.55;63.95
72548;BME280;60570;50.848;6.776;2023-04-30T04:05:01;101132.63;;;12.58;63.67
72548;BME280;60570;50.848;6.776;2023-04-30T04:06:03;101128.88;;;12.54;63.80
72548;BME280;60570;50.848;6.776;2023-04-30T04:07:04;101121.34;;;12.54;63.89
72548;BME280;60570;50.848;6.776;2023-04-30T04:08:07;101125.75;;;12.55;63.79
72548;BME280;60570;50.848;6.776;2023-04-30T04:09:08;101132.00;;;12.52;63.72
72548;BME280;60570;50.848;6.776;2023-04-30T04:10:09;101129.88;;;12.49;64.10
72548;BME280;60570;50.848;6.776;2023-04-30T04:11:10;101125.59;;;12.52;63.65
72548;BME280;60570;50.848;6.776;2023-04-30T04:12:12;101125.94;;;12.50;63.90
72548;BME280;60570;50.848;6.776;2023-04-30T04:13:13;101133.13;;;12.51;63.91
72548;BME280;60570;50.848;6.776;2023-04-30T04:14:15;101134.44;;;12.54;63.88
72548;BME280;60570;50.848;6.776;2023-04-30T04:15:16;101134.13;;;12.55;63.57
72548;BME280;60570;50.848;6.776;2023-04-30T04:16:17;101134.94;;;12.56;63.45
72548;BME280;60570;50.848;6.776;2023-04-30T04:17:20;101139.88;;;12.50;63.76
72548;BME280;60570;50.848;6.776;2023-04-30T04:18:22;101137.91;;;12.51;63.42
72548;BME280;60570;50.848;6.776;2023-04-30T04:19:23;101137.25;;;12.54;63.25
72548;BME280;60570;50.848;6.776;2023-04-30T04:20:24;101143.81;;;12.49;63.54
72548;BME280;60570;50.848;6.776;2023-04-30T04:21:26;101138.56;;;12.48;63.71
72548;BME280;60570;50.848;6.776;2023-04-30T04:22:28;101134.97;;;12.47;63.78
72548;BME280;60570;50.848;6.776;2023-04-30T04:23:29;101133.81;;;12.48;63.56
72548;BME280;60570;50.848;6.776;2023-04-30T04:24:31;101129.06;;;12.49;63.61
72548;BME280;60570;50.848;6.776;2023-04-30T04:25:32;101139.72;;;12.47;63.42
72548;BME280;60570;50.848;6.776;2023-04-30T04:26:35;101137.25;;;12.45;63.61
72548;BME280;60570;50.848;6.776;2023-04-30T04:27:35;101136.94;;;12.47;63.58
72548;BME280;60570;50.848;6.776;2023-04-30T04:28:37;101140.38;;;12.44;63.63
72548;BME280;60570;50.848;6.776;2023-04-30T04:29:38;101139.25;;;12.45;63.58
72548;BME280;60570;50.848;6.776;2023-04-30T04:30:40;101143.50;;;12.51;63.59
72548;BME280;60570;50.848;6.776;2023-04-30T04:31:40;101141.69;;;12.55;63.24
72548;BME280;60570;50.848;6.776;2023-04-30T04:32:44;101150.19;;;12.50;63.53
72548;BME280;60570;50.848;6.776;2023-04-30T04:33:46;101144.97;;;12.48;62.97
72548;BME280;60570;50.848;6.776;2023-04-30T04:34:48;101145.97;;;12.44;63.58
72548;BME280;60570;50.848;6.776;2023-04-30T04:35:48;101147.94;;;12.43;63.18
72548;BME280;60570;50.848;6.776;2023-04-30T04:36:50;101149.72;;;12.48;63.38
72548;BME280;60570;50.848;6.776;2023-04-30T04:37:51;101148.25;;;12.50;63.15
72548;BME280;60570;50.848;6.776;2023-04-30T04:38:52;101142.53;;;12.47;63.33
72548;BME280;60570;50.848;6.776;2023-04-30T04:39:53;101142.53;;;12.47;63.05
72548;BME280;60570;50.848;6.776;2023-04-30T04:40:55;101139.41;;;12.48;63.23
72548;BME280;60570;50.848;6.776;2023-04-30T04:41:55;101145.16;;;12.43;63.31
72548;BME280;60570;50.848;6.776;2023-04-30T04:42:57;101141.53;;;12.43;63.31
72548;BME280;60570;50.848;6.776;2023-04-30T04:43:58;101144.19;;;12.39;63.53
72548;BME280;60570;50.848;6.776;2023-04-30T04:45:01;101147.78;;;12.40;63.17
72548;BME280;60570;50.848;6.776;2023-04-30T04:46:03;101143.84;;;12.41;63.51
72548;BME280;60570;50.848;6.776;2023-04-30T04:47:04;101144.97;;;12.40;63.42
72548;BME280;60570;50.848;6.776;2023-04-30T04:48:06;101149.91;;;12.34;63.42
72548;BME280;60570;50.848;6.776;2023-04-30T04:49:08;101146.28;;;12.42;63.00
72548;BME280;60570;50.848;6.776;2023-04-30T04:50:10;101143.34;;;12.39;63.33
72548;BME280;60570;50.848;6.776;2023-04-30T04:51:11;101155.16;;;12.36;63.22
72548;BME280;60570;50.848;6.776;2023-04-30T04:52:12;101153.53;;;12.35;63.43
72548;BME280;60570;50.848;6.776;2023-04-30T04:53:14;101140.09;;;12.37;63.24
72548;BME280;60570;50.848;6.776;2023-04-30T04:54:14;101145.16;;;12.35;63.33
72548;BME280;60570;50.848;6.776;2023-04-30T04:55:16;101155.81;;;12.33;63.67
72548;BME280;60570;50.848;6.776;2023-04-30T04:56:17;101151.72;;;12.39;63.06
72548;BME280;60570;50.848;6.776;2023-04-30T04:57:19;101160.41;;;12.37;63.23
72548;BME280;60570;50.848;6.776;2023-04-30T04:58:19;101161.25;;;12.29;63.58
72548;BME280;60570;50.848;6.776;2023-04-30T04:59:21;101162.53;;;12.32;63.70
72548;BME280;60570;50.848;6.776;2023-04-30T05:00:24;101161.41;;;12.33;63.50
72548;BME280;60570;50.848;6.776;2023-04-30T05:01:26;101162.22;;;12.33;63.40
72548;BME280;60570;50.848;6.776;2023-04-30T05:02:28;101170.88;;;12.32;63.48
72548;BME280;60570;50.848;6.776;2023-04-30T05:03:33;101162.38;;;12.37;63.39
72548;BME280;60570;50.848;6.776;2023-04-30T05:04:36;101171.72;;;12.32;63.33
72548;BME280;60570;50.848;6.776;2023-04-30T05:05:37;101167.31;;;12.31;63.49
72548;BME280;60570;50.848;6.776;2023-04-30T05:06:39;101170.09;;;12.31;63.31
72548;BME280;60570;50.848;6.776;2023-04-30T05:07:41;101167.16;;;12.28;63.71
72548;BME280;60570;50.848;6.776;2023-04-30T05:08:43;101167.97;;;12.28;63.42
72548;BME280;60570;50.848;6.776;2023-04-30T05:09:44;101170.75;;;12.28;63.68
72548;BME280;60570;50.848;6.776;2023-04-30T05:10:46;101171.56;;;12.29;63.69
72548;BME280;60570;50.848;6.776;2023-04-30T05:11:47;101166.47;;;12.31;63.35
72548;BME280;60570;50.848;6.776;2023-04-30T05:12:49;101169.59;;;12.29;63.45
72548;BME280;60570;50.848;6.776;2023-04-30T05:13:49;101173.03;;;12.26;63.63
72548;BME280;60570;50.848;6.776;2023-04-30T05:14:51;101171.91;;;12.27;63.57
72548;BME280;60570;50.848;6.776;2023-04-30T05:15:52;101179.25;;;12.32;63.24
72548;BME280;60570;50.848;6.776;2023-04-30T05:16:54;101174.50;;;12.32;63.41
72548;BME280;60570;50.848;6.776;2023-04-30T05:17:55;101173.53;;;12.37;63.19
72548;BME280;60570;50.848;6.776;2023-04-30T05:18:58;101171.38;;;12.34;63.00
72548;BME280;60570;50.848;6.776;2023-04-30T05:19:59;101177.78;;;12.34;62.91
72548;BME280;60570;50.848;6.776;2023-04-30T05:21:01;101173.53;;;12.28;63.10
72548;BME280;60570;50.848;6.776;2023-04-30T05:22:03;101176.81;;;12.30;63.35
72548;BME280;60570;50.848;6.776;2023-04-30T05:23:05;101183.69;;;12.33;62.98
72548;BME280;60570;50.848;6.776;2023-04-30T05:24:06;101179.94;;;12.29;62.98
72548;BME280;60570;50.848;6.776;2023-04-30T05:25:08;101178.94;;;12.25;63.36
72548;BME280;60570;50.848;6.776;2023-04-30T05:26:09;101180.59;;;12.26;63.21
72548;BME280;60570;50.848;6.776;2023-04-30T05:27:11;101185.66;;;12.32;63.14
72548;BME280;60570;50.848;6.776;2023-04-30T05:28:11;101181.88;;;12.28;63.16